Time;durP1;ratioP1;P1;durP2;ratioP2;P2;SDS_P1;SDS_P2;PMS_P1;PMS_P2;Temp;Humidity;BMP_temperature;BMP_pressure;BME280_temperature;BME280_humidity;BME280_pressure;Samples;Min_cycle;Max_cycle;Signal;HPM_P1;HPM_P2
2022/01/03 00:01:55;;;;;;;0.20;0.20;;;10.50;99.90;;;;;;4956190;28;20579;-85
2022/01/03 00:04:21;;;;;;;0.30;0.30;;;10.40;99.90;;;;;;4969104;28;20216;-85
2022/01/03 00:06:49;;;;;;;0.43;0.40;;;10.40;99.90;;;;;;4955719;28;20220;-85
2022/01/03 00:09:15;;;;;;;2.00;0.77;;;10.50;99.90;;;;;;4988364;28;20211;-88
2022/01/03 00:11:41;;;;;;;5.07;0.40;;;10.50;99.90;;;;;;4972137;28;20224;-84
2022/01/03 00:14:07;;;;;;;0.30;0.30;;;10.50;99.90;;;;;;4972765;28;20649;-84
2022/01/03 00:16:33;;;;;;;0.50;0.37;;;10.50;99.90;;;;;;4988767;28;21198;-84
2022/01/03 00:18:59;;;;;;;3.60;1.07;;;10.40;99.90;;;;;;4971360;28;20216;-85
2022/01/03 00:21:43;;;;;;;1.27;1.17;;;10.50;99.90;;;;;;4955905;28;20315;-86
2022/01/03 00:24:11;;;;;;;2.23;1.93;;;10.50;99.90;;;;;;4972844;28;20239;-85
2022/01/03 00:26:38;;;;;;;1.73;1.63;;;10.50;99.90;;;;;;4986545;28;20180;-83
2022/01/03 00:29:17;;;;;;;0.20;0.20;;;10.50;99.90;;;;;;4972313;28;20188;-88
2022/01/03 00:31:43;;;;;;;4.70;0.70;;;10.50;99.90;;;;;;4988102;28;20250;-86
2022/01/03 00:34:11;;;;;;;3.43;0.90;;;10.60;99.90;;;;;;4970750;28;20577;-86
2022/01/03 00:36:38;;;;;;;0.20;0.20;;;10.50;99.90;;;;;;4986262;28;20227;-84
2022/01/03 00:39:07;;;;;;;1.67;0.63;;;10.50;99.90;;;;;;5003157;28;20234;-83
2022/01/03 00:41:37;;;;;;;0.37;0.37;;;10.50;99.90;;;;;;4971875;28;20203;-84
2022/01/03 00:44:04;;;;;;;22.40;0.90;;;10.50;99.90;;;;;;4987536;28;20180;-84
2022/01/03 00:46:32;;;;;;;5.30;1.13;;;10.50;99.90;;;;;;4971710;28;20220;-87
2022/01/03 00:49:00;;;;;;;0.53;0.20;;;10.50;99.90;;;;;;4972601;28;20216;-84
2022/01/03 00:51:26;;;;;;;0.77;0.60;;;10.60;99.90;;;;;;4987246;28;20233;-84
2022/01/03 00:53:52;;;;;;;0.30;0.30;;;10.50;99.90;;;;;;4971891;28;20302;-84
2022/01/03 00:56:29;;;;;;;0.83;0.50;;;10.50;99.90;;;;;;4956215;28;20204;-86
2022/01/03 00:59:20;;;;;;;0.63;0.63;;;10.50;99.90;;;;;;4987987;28;20216;-84
2022/01/03 01:01:49;;;;;;;1.33;1.23;;;10.50;99.90;;;;;;4986950;28;20212;-86
2022/01/03 01:04:17;;;;;;;5.63;1.50;;;10.60;99.90;;;;;;5003936;28;20215;-84
2022/01/03 01:06:43;;;;;;;13.10;1.40;;;10.50;99.90;;;;;;4987721;28;20704;-86
2022/01/03 01:09:13;;;;;;;5.93;1.33;;;10.50;99.90;;;;;;4970102;28;20216;-85
2022/01/03 01:11:44;;;;;;;0.90;0.87;;;10.50;99.90;;;;;;4987345;28;20184;-84
2022/01/03 01:14:11;;;;;;;7.37;2.50;;;10.50;99.90;;;;;;4988221;28;20188;-87
2022/01/03 01:16:37;;;;;;;15.40;1.03;;;10.60;99.90;;;;;;4955430;28;20607;-84
2022/01/03 01:19:05;;;;;;;1.53;1.13;;;10.60;99.90;;;;;;4986308;28;20228;-84
2022/01/03 01:21:31;;;;;;;2.80;1.27;;;10.60;99.90;;;;;;4986296;28;20735;-86
2022/01/03 01:23:58;;;;;;;10.50;0.87;;;10.60;99.90;;;;;;4970379;28;20704;-85
2022/01/03 01:29:09;;;;;;;3.70;1.07;;;10.60;99.90;;;;;;4988221;28;20206;-83
2022/01/03 01:31:39;;;;;;;3.10;0.73;;;10.70;99.90;;;;;;4986954;28;20277;-84
2022/01/03 01:34:07;;;;;;;1.20;0.53;;;10.70;99.90;;;;;;4986833;28;20208;-84
2022/01/03 01:36:35;;;;;;;3.90;0.80;;;10.70;99.90;;;;;;4985806;28;20330;-84
2022/01/03 01:39:07;;;;;;;8.27;0.70;;;10.70;99.90;;;;;;4970554;28;20226;-89
2022/01/03 01:41:37;;;;;;;15.87;1.33;;;10.80;99.90;;;;;;5003821;28;20716;-85
2022/01/03 01:44:07;;;;;;;9.83;0.73;;;10.80;99.90;;;;;;4988078;28;20258;-85
2022/01/03 01:46:34;;;;;;;6.63;1.43;;;10.70;99.90;;;;;;4987547;28;20616;-86
2022/01/03 01:49:04;;;;;;;1.60;0.90;;;10.70;99.90;;;;;;4986556;28;20224;-85
2022/01/03 01:51:34;;;;;;;1.60;1.43;;;10.70;99.90;;;;;;5002494;28;20231;-87
2022/01/03 01:54:04;;;;;;;6.17;3.47;;;10.70;99.90;;;;;;4970814;28;20216;-86
2022/01/03 01:56:50;;;;;;;7.40;1.70;;;10.70;99.90;;;;;;4987103;28;20180;-84
2022/01/03 01:59:21;;;;;;;4.67;1.80;;;10.60;99.90;;;;;;4986084;28;20195;-84
2022/01/03 02:01:55;;;;;;;0.70;0.53;;;10.70;99.90;;;;;;4987425;28;20561;-84
2022/01/03 02:04:47;;;;;;;1.40;0.70;;;10.70;99.90;;;;;;4987672;28;20220;-84
2022/01/03 02:07:50;;;;;;;0.63;0.60;;;10.70;99.90;;;;;;4988683;28;20242;-89
2022/01/03 02:10:16;;;;;;;4.60;1.90;;;10.70;99.90;;;;;;4987537;28;20227;-84
2022/01/03 02:12:46;;;;;;;6.50;0.97;;;10.70;99.90;;;;;;4968775;28;20564;-84
2022/01/03 02:15:15;;;;;;;9.07;0.73;;;10.60;99.90;;;;;;4986883;28;21198;-85
2022/01/03 02:17:44;;;;;;;2.67;1.23;;;10.70;99.90;;;;;;4986691;28;20232;-84
2022/01/03 02:20:11;;;;;;;2.13;1.43;;;10.70;99.90;;;;;;4985856;28;20700;-85
2022/01/03 02:22:38;;;;;;;9.00;1.47;;;10.60;99.90;;;;;;4988643;28;20356;-83
2022/01/03 02:25:06;;;;;;;2.50;1.33;;;10.70;99.90;;;;;;4985417;28;20693;-83
2022/01/03 02:27:32;;;;;;;2.30;1.27;;;10.70;99.90;;;;;;4988972;28;20303;-86
2022/01/03 02:29:58;;;;;;;6.17;0.67;;;10.70;99.90;;;;;;4974923;28;20282;-87
2022/01/03 02:32:24;;;;;;;4.93;1.00;;;10.70;99.90;;;;;;4989984;28;20219;-85
2022/01/03 02:34:50;;;;;;;0.47;0.40;;;10.70;99.90;;;;;;4958550;28;20554;-86
2022/01/03 02:37:16;;;;;;;1.73;0.93;;;10.70;99.90;;;;;;4990314;28;20302;-85
2022/01/03 02:39:43;;;;;;;4.50;0.87;;;10.70;99.90;;;;;;4974147;28;20220;-85
2022/01/03 02:42:08;;;;;;;2.77;1.30;;;10.70;99.90;;;;;;4974188;28;20382;-85
2022/01/03 02:44:34;;;;;;;3.07;0.93;;;10.70;99.90;;;;;;4973990;28;20267;-84
2022/01/03 02:47:00;;;;;;;7.73;1.50;;;10.70;99.90;;;;;;4974676;28;20207;-84
2022/01/03 02:49:26;;;;;;;4.60;1.17;;;10.70;99.90;;;;;;4972048;28;20726;-85
2022/01/03 02:51:52;;;;;;;0.70;0.70;;;10.70;99.90;;;;;;4974453;28;20220;-86
2022/01/03 02:54:17;;;;;;;1.97;0.47;;;10.80;99.90;;;;;;4956711;28;20212;-85
2022/01/03 02:56:43;;;;;;;5.93;2.00;;;10.70;99.90;;;;;;4972974;28;20220;-83
2022/01/03 02:59:13;;;;;;;1.50;0.70;;;10.70;99.90;;;;;;4972600;28;20193;-84
2022/01/03 03:01:47;;;;;;;6.13;0.77;;;10.70;99.90;;;;;;4989423;28;20700;-84
2022/01/03 03:04:15;;;;;;;2.37;1.93;;;10.70;99.90;;;;;;4989105;28;20208;-85
2022/01/03 03:06:40;;;;;;;4.73;3.07;;;10.70;99.90;;;;;;4989380;28;20211;-83
2022/01/03 03:09:07;;;;;;;7.93;1.13;;;10.70;99.90;;;;;;4990113;28;20219;-86
2022/01/03 03:11:37;;;;;;;6.20;0.63;;;10.70;99.90;;;;;;4973196;28;20188;-84
2022/01/03 03:14:04;;;;;;;1.33;0.83;;;10.60;99.90;;;;;;4973257;28;20188;-85
2022/01/03 03:16:29;;;;;;;5.47;4.03;;;10.60;99.90;;;;;;4972134;28;20577;-84
2022/01/03 03:18:55;;;;;;;3.53;1.57;;;10.60;99.90;;;;;;4973316;28;20211;-84
2022/01/03 03:21:21;;;;;;;9.80;1.30;;;10.60;99.90;;;;;;4955581;28;20603;-83
2022/01/03 03:23:47;;;;;;;1.13;0.43;;;10.60;99.90;;;;;;4956988;28;20689;-84
2022/01/03 03:26:13;;;;;;;6.67;1.67;;;10.50;99.90;;;;;;4989058;28;20266;-86
2022/01/03 03:28:39;;;;;;;1.00;1.00;;;10.60;99.90;;;;;;4989520;28;20214;-85
2022/01/03 03:31:05;;;;;;;8.30;1.60;;;10.50;99.90;;;;;;4972692;28;20767;-87
2022/01/03 03:33:32;;;;;;;9.47;3.40;;;10.60;99.90;;;;;;4972757;28;20213;-87
2022/01/03 03:36:01;;;;;;;3.43;0.60;;;10.60;99.90;;;;;;4973179;28;21221;-86
2022/01/03 03:38:28;;;;;;;8.43;1.97;;;10.60;99.90;;;;;;4986725;28;20236;-85
2022/01/03 03:40:56;;;;;;;3.80;1.60;;;10.60;99.90;;;;;;4973161;28;20188;-84
2022/01/03 03:43:22;;;;;;;4.03;1.60;;;10.60;99.90;;;;;;4988761;28;20216;-84
2022/01/03 03:45:48;;;;;;;2.13;1.37;;;10.60;99.90;;;;;;4955351;28;20220;-84
2022/01/03 03:48:15;;;;;;;12.43;1.10;;;10.60;99.90;;;;;;4972578;28;20699;-85
2022/01/03 03:50:41;;;;;;;3.70;1.83;;;10.60;99.90;;;;;;4989433;28;20196;-85
2022/01/03 03:53:07;;;;;;;4.37;1.20;;;10.50;99.90;;;;;;4972316;28;20207;-84
2022/01/03 03:55:33;;;;;;;5.23;1.23;;;10.60;99.90;;;;;;4972066;28;20709;-87
2022/01/03 03:58:00;;;;;;;3.37;1.70;;;10.60;99.90;;;;;;4972618;28;20234;-84
2022/01/03 04:00:27;;;;;;;4.10;2.10;;;10.60;99.90;;;;;;4987838;28;20595;-84
2022/01/03 04:02:53;;;;;;;1.67;1.57;;;10.60;99.90;;;;;;4988484;28;20224;-84
2022/01/03 04:05:19;;;;;;;4.67;1.03;;;10.60;99.90;;;;;;4991310;28;20645;-85
2022/01/03 04:07:45;;;;;;;10.70;1.57;;;10.60;99.90;;;;;;4956801;28;20210;-87
2022/01/03 04:10:15;;;;;;;4.10;1.30;;;10.60;99.90;;;;;;4987858;28;20204;-87
2022/01/03 04:12:42;;;;;;;7.97;1.97;;;10.50;99.90;;;;;;4972422;28;20212;-85
2022/01/03 04:15:08;;;;;;;5.80;0.70;;;10.50;99.90;;;;;;4988765;28;20212;-84
2022/01/03 04:17:34;;;;;;;13.73;1.20;;;10.50;99.90;;;;;;4988478;28;20219;-87
2022/01/03 04:20:00;;;;;;;4.73;2.13;;;10.40;99.90;;;;;;4971825;28;20217;-85
2022/01/03 04:22:26;;;;;;;2.10;0.53;;;10.40;99.90;;;;;;4955918;28;20224;-84
2022/01/03 04:24:52;;;;;;;8.83;1.23;;;10.40;99.90;;;;;;4987827;28;20211;-84
2022/01/03 04:27:17;;;;;;;11.70;1.40;;;10.40;99.90;;;;;;4953582;28;20573;-84
2022/01/03 04:29:43;;;;;;;9.03;3.10;;;10.40;99.90;;;;;;4955169;28;20277;-85
2022/01/03 04:32:10;;;;;;;2.93;2.17;;;10.40;99.90;;;;;;4972177;28;20228;-88
2022/01/03 04:34:35;;;;;;;10.00;2.13;;;10.40;99.90;;;;;;4972102;28;20212;-84
2022/01/03 04:37:02;;;;;;;1.00;0.90;;;10.40;99.90;;;;;;4987047;28;20281;-84
2022/01/03 04:39:27;;;;;;;5.20;3.30;;;10.40;99.90;;;;;;4988278;28;20219;-86
2022/01/03 04:41:53;;;;;;;21.57;1.97;;;10.40;99.90;;;;;;4971879;28;20226;-85
2022/01/03 04:44:19;;;;;;;6.10;1.27;;;10.40;99.90;;;;;;4955615;28;20200;-84
2022/01/03 04:46:45;;;;;;;1.50;1.40;;;10.30;99.90;;;;;;4971226;28;20302;-84
2022/01/03 04:49:11;;;;;;;6.43;2.03;;;10.30;99.90;;;;;;4987157;28;20224;-84
2022/01/03 04:51:37;;;;;;;1.33;1.23;;;10.40;99.90;;;;;;4954723;28;20228;-84
2022/01/03 04:54:03;;;;;;;11.43;1.87;;;10.30;99.90;;;;;;4970204;28;20251;-85
2022/01/03 04:56:29;;;;;;;9.53;1.30;;;10.30;99.90;;;;;;4953867;28;20196;-88
2022/01/03 04:58:56;;;;;;;1.67;1.40;;;10.30;99.90;;;;;;4988138;28;20727;-84
2022/01/03 05:01:23;;;;;;;13.07;3.23;;;10.40;99.90;;;;;;4986169;28;20285;-85
2022/01/03 05:03:49;;;;;;;5.83;1.13;;;10.30;99.90;;;;;;4987095;28;20223;-84
2022/01/03 05:06:17;;;;;;;4.47;1.53;;;10.30;99.90;;;;;;4987179;28;20346;-84
2022/01/03 05:08:43;;;;;;;3.93;3.00;;;10.30;99.90;;;;;;5002956;28;20215;-84
2022/01/03 05:11:09;;;;;;;19.23;1.80;;;10.40;99.90;;;;;;4988033;28;20299;-85
2022/01/03 05:13:35;;;;;;;5.27;1.77;;;10.30;99.90;;;;;;4971323;28;20310;-84
2022/01/03 05:16:01;;;;;;;5.03;2.80;;;10.30;99.90;;;;;;4987569;28;20651;-86
2022/01/03 05:18:28;;;;;;;8.83;1.53;;;10.40;99.90;;;;;;4987181;28;20391;-88
2022/01/03 05:20:53;;;;;;;8.57;2.60;;;10.30;99.90;;;;;;4989097;28;20207;-84
2022/01/03 05:23:20;;;;;;;3.50;1.80;;;10.40;99.90;;;;;;4987970;28;20557;-85
2022/01/03 05:25:46;;;;;;;0.90;0.63;;;10.40;99.90;;;;;;4988124;28;20227;-87
2022/01/03 05:28:12;;;;;;;17.37;1.80;;;10.40;99.90;;;;;;4971341;28;20238;-84
2022/01/03 05:30:38;;;;;;;14.10;3.90;;;10.40;99.90;;;;;;4970908;28;20220;-83
2022/01/03 05:33:06;;;;;;;3.10;1.53;;;10.50;99.90;;;;;;4988304;28;20234;-86
2022/01/03 05:35:32;;;;;;;4.00;1.50;;;10.50;99.90;;;;;;4967943;28;20201;-83
2022/01/03 05:37:58;;;;;;;3.30;1.33;;;10.50;99.90;;;;;;4987208;28;20220;-86
2022/01/03 05:40:24;;;;;;;10.37;0.93;;;10.50;99.90;;;;;;4986922;28;20723;-87
2022/01/03 05:42:51;;;;;;;11.73;1.37;;;10.40;99.90;;;;;;4987054;28;20715;-84
2022/01/03 05:45:17;;;;;;;4.37;1.07;;;10.40;99.90;;;;;;4986608;28;20216;-87
2022/01/03 05:47:45;;;;;;;4.20;1.47;;;10.40;99.90;;;;;;4985607;28;20274;-85
2022/01/03 05:50:12;;;;;;;5.20;1.17;;;10.30;99.90;;;;;;4971791;28;20208;-86
2022/01/03 05:52:38;;;;;;;5.53;1.80;;;10.40;99.90;;;;;;4986151;28;20223;-87
2022/01/03 05:55:05;;;;;;;11.90;1.80;;;10.40;99.90;;;;;;4969277;28;20215;-88
2022/01/03 05:57:31;;;;;;;1.20;0.90;;;10.40;99.90;;;;;;4971225;28;20227;-83
2022/01/03 05:59:56;;;;;;;10.13;1.60;;;10.40;99.90;;;;;;4988387;28;20231;-86
2022/01/03 06:02:24;;;;;;;2.00;1.03;;;10.40;99.90;;;;;;4971368;28;20665;-85
2022/01/03 06:07:19;;;;;;;13.27;1.87;;;10.40;99.90;;;;;;4989707;28;20215;-84
2022/01/03 06:09:45;;;;;;;8.13;2.23;;;10.40;99.90;;;;;;4989023;28;20274;-84
2022/01/03 06:12:11;;;;;;;1.43;1.33;;;10.50;99.90;;;;;;4989571;28;20226;-85
2022/01/03 06:14:38;;;;;;;0.93;0.37;;;10.50;99.90;;;;;;4973756;28;20184;-83
2022/01/03 06:17:05;;;;;;;9.47;2.53;;;10.50;99.90;;;;;;4991339;28;20215;-86
2022/01/03 06:19:32;;;;;;;9.57;0.83;;;10.50;99.90;;;;;;4973335;28;20209;-88
2022/01/03 06:21:58;;;;;;;5.47;1.57;;;10.50;99.90;;;;;;5007362;28;20714;-84
2022/01/03 06:24:24;;;;;;;7.27;1.43;;;10.50;99.90;;;;;;4956744;28;20249;-84
2022/01/03 06:26:51;;;;;;;25.60;4.60;;;10.50;99.90;;;;;;4990953;28;20236;-84
2022/01/03 06:29:20;;;;;;;8.07;2.47;;;10.50;99.90;;;;;;4991519;28;20199;-84
2022/01/03 06:31:47;;;;;;;2.00;0.83;;;10.40;99.90;;;;;;4975801;28;20777;-85
2022/01/03 06:34:14;;;;;;;12.90;1.63;;;10.50;99.90;;;;;;4973907;28;20220;-88
2022/01/03 06:36:40;;;;;;;6.33;2.73;;;10.50;99.90;;;;;;4990057;28;20843;-85
2022/01/03 06:39:08;;;;;;;3.93;2.37;;;10.50;99.90;;;;;;4990325;28;20232;-84
2022/01/03 06:41:34;;;;;;;5.67;3.80;;;10.50;99.90;;;;;;4989622;28;20573;-85
2022/01/03 06:44:09;;;;;;;15.87;2.13;;;10.50;99.90;;;;;;4990948;28;20243;-88
2022/01/03 06:46:35;;;;;;;2.73;1.10;;;10.40;99.90;;;;;;4975168;28;20242;-85
2022/01/03 06:49:05;;;;;;;0.67;0.47;;;10.40;99.90;;;;;;4974685;28;20235;-90
2022/01/03 06:51:34;;;;;;;11.50;3.30;;;10.40;99.90;;;;;;4988113;28;20623;-84
2022/01/03 06:54:05;;;;;;;8.97;1.87;;;10.40;99.90;;;;;;4973189;28;20224;-83
2022/01/03 06:56:31;;;;;;;6.57;2.53;;;10.40;99.90;;;;;;4989483;28;20216;-86
2022/01/03 06:58:56;;;;;;;8.90;2.37;;;10.30;99.90;;;;;;4990487;28;20247;-83
2022/01/03 07:01:22;;;;;;;4.37;1.90;;;10.30;99.90;;;;;;4973084;28;20216;-86
2022/01/03 07:03:48;;;;;;;5.73;1.40;;;10.40;99.90;;;;;;4989636;28;20220;-84
2022/01/03 07:06:14;;;;;;;4.60;1.80;;;10.30;99.90;;;;;;4972990;28;20303;-84
2022/01/03 07:08:39;;;;;;;6.47;1.10;;;10.30;99.90;;;;;;4973703;28;20235;-86
2022/01/03 07:11:05;;;;;;;3.23;1.00;;;10.40;99.90;;;;;;4973846;28;20227;-86
2022/01/03 07:13:41;;;;;;;6.77;2.83;;;10.30;99.90;;;;;;4972997;28;20270;-84
2022/01/03 07:19:05;;;;;;;1.20;0.83;;;10.40;99.90;;;;;;4951125;28;20228;-84
2022/01/03 07:21:33;;;;;;;2.97;2.67;;;10.40;99.90;;;;;;4973987;28;20221;-84
2022/01/03 07:23:59;;;;;;;1.53;0.67;;;10.40;99.90;;;;;;5005066;28;20216;-88
2022/01/03 07:26:26;;;;;;;7.23;1.77;;;10.40;99.90;;;;;;5005426;28;20653;-85
2022/01/03 07:28:53;;;;;;;5.87;1.37;;;10.30;99.90;;;;;;4973508;28;20188;-84
2022/01/03 07:31:19;;;;;;;4.03;1.17;;;10.40;99.90;;;;;;4989213;28;20281;-88
2022/01/03 07:33:46;;;;;;;8.13;2.27;;;10.40;99.90;;;;;;4954582;28;20235;-84
2022/01/03 07:36:12;;;;;;;3.30;1.20;;;10.40;99.90;;;;;;4988504;28;20220;-85
2022/01/03 07:38:38;;;;;;;10.13;2.50;;;10.40;99.90;;;;;;4972687;28;20582;-87
2022/01/03 07:41:04;;;;;;;13.33;3.60;;;10.40;99.90;;;;;;4971654;28;20188;-84
2022/01/03 07:43:33;;;;;;;9.13;2.13;;;10.30;99.90;;;;;;4972330;28;20212;-85
2022/01/03 07:45:59;;;;;;;3.07;1.33;;;10.30;99.90;;;;;;4961923;28;20215;-85
2022/01/03 07:48:25;;;;;;;5.53;1.27;;;10.20;99.90;;;;;;4972165;28;20235;-86
2022/01/03 07:50:51;;;;;;;4.00;1.13;;;10.20;99.90;;;;;;4954816;28;20613;-85
2022/01/03 07:53:17;;;;;;;5.07;3.43;;;10.20;99.90;;;;;;4972879;28;20192;-91
2022/01/03 07:55:43;;;;;;;2.80;1.17;;;10.20;99.90;;;;;;4955920;28;20231;-86
2022/01/03 07:58:11;;;;;;;6.33;1.97;;;10.20;99.90;;;;;;4971917;28;20227;-87
2022/01/03 08:00:37;;;;;;;7.00;1.63;;;10.30;99.90;;;;;;4971559;28;20812;-88
2022/01/03 08:03:03;;;;;;;4.57;2.47;;;10.30;99.90;;;;;;4970298;28;20221;-84
2022/01/03 08:05:29;;;;;;;2.87;1.00;;;10.30;99.90;;;;;;4956080;28;20555;-86
2022/01/03 08:07:55;;;;;;;3.57;1.57;;;10.20;99.90;;;;;;4971680;28;20269;-86
2022/01/03 08:10:23;;;;;;;27.43;2.43;;;10.30;99.90;;;;;;4954832;28;20267;-86
2022/01/03 08:12:49;;;;;;;1.00;0.97;;;10.30;99.90;;;;;;4970957;28;20216;-88
2022/01/03 08:15:15;;;;;;;8.87;1.70;;;10.30;99.90;;;;;;4986779;28;20216;-86
2022/01/03 08:17:44;;;;;;;1.03;0.90;;;10.40;99.90;;;;;;4969856;28;20312;-86
2022/01/03 08:20:10;;;;;;;6.83;2.43;;;10.50;99.90;;;;;;4972469;28;20192;-85
2022/01/03 08:22:36;;;;;;;9.97;1.57;;;10.50;99.90;;;;;;4987524;28;20228;-85
2022/01/03 08:25:05;;;;;;;5.03;1.40;;;10.60;99.90;;;;;;4970304;28;20217;-86
2022/01/03 08:27:31;;;;;;;7.73;1.27;;;10.60;99.90;;;;;;4978565;28;20215;-87
2022/01/03 08:29:57;;;;;;;8.67;2.97;;;10.60;99.90;;;;;;4960097;28;20228;-86
2022/01/03 08:32:23;;;;;;;5.70;1.20;;;10.60;99.90;;;;;;4944770;28;20227;-85
2022/01/03 08:34:50;;;;;;;4.60;1.27;;;10.50;99.90;;;;;;4974523;28;20641;-86
2022/01/03 08:37:16;;;;;;;5.97;1.20;;;10.60;99.90;;;;;;4969154;28;20228;-85
2022/01/03 08:39:42;;;;;;;6.40;0.80;;;10.60;99.90;;;;;;4961110;28;20270;-86
2022/01/03 08:42:08;;;;;;;19.03;1.33;;;10.60;99.90;;;;;;4958033;28;20631;-90
2022/01/03 08:44:34;;;;;;;2.67;2.23;;;10.60;99.90;;;;;;4945034;28;20561;-84
2022/01/03 08:46:59;;;;;;;0.70;0.70;;;10.60;99.90;;;;;;4945082;28;20202;-86
2022/01/03 08:49:28;;;;;;;5.10;2.10;;;10.70;99.90;;;;;;4960917;28;20263;-88
2022/01/03 08:51:54;;;;;;;1.83;1.00;;;10.70;99.90;;;;;;4960468;28;20219;-86
2022/01/03 08:54:20;;;;;;;9.40;1.57;;;10.60;99.90;;;;;;4946756;28;20228;-86
2022/01/03 08:56:46;;;;;;;3.83;1.50;;;10.70;99.90;;;;;;4960986;28;20234;-85
2022/01/03 08:59:12;;;;;;;4.13;1.63;;;10.70;99.90;;;;;;4946743;28;20184;-84
2022/01/03 09:01:38;;;;;;;3.70;3.40;;;10.70;99.90;;;;;;4945931;28;20224;-85
2022/01/03 09:04:04;;;;;;;7.57;2.73;;;10.70;99.90;;;;;;4962606;28;20231;-84
2022/01/03 09:06:30;;;;;;;13.07;2.03;;;10.80;99.90;;;;;;4944153;28;20636;-87
2022/01/03 09:08:56;;;;;;;7.23;2.27;;;10.80;99.90;;;;;;4960493;28;20680;-85
2022/01/03 09:11:40;;;;;;;2.23;0.93;;;10.80;99.90;;;;;;4965527;28;20238;-89
2022/01/03 09:14:06;;;;;;;9.13;0.97;;;10.80;99.90;;;;;;4945622;28;20200;-86
2022/01/03 09:16:32;;;;;;;11.93;1.77;;;10.90;99.90;;;;;;4941233;28;20216;-85
2022/01/03 09:18:58;;;;;;;13.03;4.07;;;10.90;99.90;;;;;;4977430;28;20239;-84
2022/01/03 09:21:24;;;;;;;2.93;1.80;;;10.90;99.90;;;;;;4974419;28;20238;-86
2022/01/03 09:24:04;;;;;;;4.93;1.20;;;10.90;99.90;;;;;;4960643;28;20232;-85
2022/01/03 09:29:17;;;;;;;0.83;0.83;;;11.00;99.90;;;;;;4978106;28;20649;-89
2022/01/03 09:31:43;;;;;;;4.13;3.20;;;11.00;99.90;;;;;;4962121;28;20236;-87
2022/01/03 09:34:09;;;;;;;10.20;2.50;;;11.00;99.90;;;;;;4979249;28;20222;-84
2022/01/03 09:36:35;;;;;;;7.80;1.37;;;11.10;99.90;;;;;;4963131;28;20223;-85
2022/01/03 09:39:04;;;;;;;2.73;1.07;;;11.10;99.90;;;;;;4982028;28;20208;-89
2022/01/03 09:41:33;;;;;;;1.33;1.23;;;11.10;99.90;;;;;;4966509;28;20192;-87
2022/01/03 09:44:04;;;;;;;5.47;2.30;;;11.10;99.90;;;;;;4982006;28;20196;-85
2022/01/03 09:46:37;;;;;;;3.37;1.33;;;11.20;99.90;;;;;;4979180;28;20221;-87
2022/01/03 09:49:09;;;;;;;3.53;1.13;;;11.20;99.90;;;;;;4981416;28;20216;-85
2022/01/03 09:51:37;;;;;;;1.40;1.33;;;11.20;99.90;;;;;;4962440;28;20701;-85
2022/01/03 09:54:07;;;;;;;13.60;1.90;;;11.20;99.90;;;;;;4963920;28;20269;-86
2022/01/03 09:56:35;;;;;;;15.27;2.43;;;11.20;99.90;;;;;;4964863;28;20602;-87
2022/01/03 09:59:05;;;;;;;6.60;2.17;;;11.20;99.90;;;;;;4964739;28;20204;-90
2022/01/03 10:01:32;;;;;;;3.23;0.93;;;11.20;99.90;;;;;;4977946;28;20220;-86
2022/01/03 10:03:59;;;;;;;8.60;1.40;;;11.20;99.90;;;;;;4979804;28;20226;-85
2022/01/03 10:06:25;;;;;;;3.33;1.20;;;11.20;99.90;;;;;;4978033;28;20220;-87
2022/01/03 10:08:52;;;;;;;2.37;1.70;;;11.20;99.90;;;;;;4946053;28;20220;-86
2022/01/03 10:11:20;;;;;;;1.40;0.87;;;11.30;99.90;;;;;;4981295;28;20544;-85
2022/01/03 10:13:46;;;;;;;9.37;3.10;;;11.30;99.90;;;;;;4987882;28;20219;-85
2022/01/03 10:16:12;;;;;;;2.87;0.93;;;11.40;99.90;;;;;;4973791;28;20603;-88
2022/01/03 10:18:38;;;;;;;5.43;0.87;;;11.30;99.90;;;;;;4989502;28;20226;-87
2022/01/03 10:21:07;;;;;;;2.23;0.50;;;11.40;99.90;;;;;;4989440;28;20212;-85
2022/01/03 10:23:34;;;;;;;2.93;0.83;;;11.40;99.90;;;;;;4974746;28;20204;-84
2022/01/03 10:26:18;;;;;;;2.37;2.27;;;11.50;99.90;;;;;;4989886;28;20250;-86
2022/01/03 10:28:44;;;;;;;8.83;1.77;;;11.50;99.90;;;;;;4991646;28;20218;-87
2022/01/03 10:31:18;;;;;;;1.27;1.17;;;11.50;99.90;;;;;;4973014;28;20234;-87
2022/01/03 10:33:45;;;;;;;2.33;1.07;;;11.50;99.90;;;;;;4971225;28;20725;-88
2022/01/03 10:36:33;;;;;;;15.13;2.57;;;11.50;99.90;;;;;;4954702;28;20213;-87
2022/01/03 10:39:14;;;;;;;11.77;1.27;;;11.50;99.90;;;;;;4971089;28;20233;-88
2022/01/03 10:41:40;;;;;;;11.40;1.57;;;11.60;99.90;;;;;;4972417;28;20558;-89
2022/01/03 10:44:07;;;;;;;4.50;1.57;;;11.60;99.90;;;;;;4955206;28;20201;-89
2022/01/03 10:46:35;;;;;;;16.97;1.50;;;11.60;99.90;;;;;;4954957;28;20232;-90
2022/01/03 10:49:20;;;;;;;2.53;0.77;;;11.60;99.90;;;;;;4955669;28;20290;-87
2022/01/03 10:51:47;;;;;;;14.40;1.73;;;11.60;99.90;;;;;;4964831;28;20698;-90
2022/01/03 10:54:17;;;;;;;2.73;0.50;;;11.60;99.90;;;;;;4955266;28;20214;-86
2022/01/03 10:56:50;;;;;;;14.87;2.70;;;11.60;99.90;;;;;;4948201;28;20217;-86
2022/01/03 10:59:22;;;;;;;3.33;1.67;;;11.50;99.90;;;;;;4954617;28;20662;-86
2022/01/03 11:01:59;;;;;;;15.73;1.40;;;11.60;99.90;;;;;;4971695;28;20428;-87
2022/01/03 11:05:00;;;;;;;5.03;1.17;;;11.60;99.90;;;;;;4972458;28;20226;-86
2022/01/03 11:13:15;;;;;;;6.43;1.13;;;11.60;99.90;;;;;;4974817;28;20228;-87
2022/01/03 11:15:56;;;;;;;4.77;1.73;;;11.60;99.90;;;;;;4970751;28;20223;-88
2022/01/03 11:18:33;;;;;;;3.60;1.30;;;11.60;99.90;;;;;;4961286;28;20224;-86
2022/01/03 11:21:14;;;;;;;5.77;0.97;;;11.60;99.90;;;;;;4960562;28;20254;-87
2022/01/03 11:23:43;;;;;;;3.10;0.93;;;11.60;99.90;;;;;;4964452;28;20190;-86
2022/01/03 11:26:12;;;;;;;10.73;1.47;;;11.60;99.90;;;;;;4961154;28;20193;-87
2022/01/03 11:28:42;;;;;;;5.67;2.03;;;11.60;99.90;;;;;;4966848;28;20223;-88
2022/01/03 11:31:11;;;;;;;5.93;0.70;;;11.60;99.90;;;;;;4962888;28;20577;-89
2022/01/03 11:33:38;;;;;;;7.73;1.20;;;11.70;99.90;;;;;;4962740;28;20247;-87
2022/01/03 11:36:06;;;;;;;4.50;1.20;;;11.60;99.90;;;;;;4960627;28;20209;-88
2022/01/03 11:38:36;;;;;;;5.50;2.73;;;11.60;99.90;;;;;;4961765;28;20254;-87
2022/01/03 11:41:08;;;;;;;7.00;2.13;;;11.70;99.90;;;;;;4960645;28;20548;-87
2022/01/03 11:43:36;;;;;;;4.17;2.03;;;11.70;99.90;;;;;;4954167;28;20220;-87
2022/01/03 11:46:03;;;;;;;4.87;1.17;;;11.60;99.90;;;;;;4934632;29;20213;-88
2022/01/03 11:48:29;;;;;;;3.63;1.07;;;11.50;99.90;;;;;;4957625;28;20578;-88
2022/01/03 11:50:58;;;;;;;2.00;0.90;;;11.50;99.90;;;;;;4953104;28;20217;-87
2022/01/03 11:53:24;;;;;;;3.00;1.80;;;11.60;99.90;;;;;;4974294;28;20188;-88
2022/01/03 11:55:55;;;;;;;0.80;0.60;;;11.60;99.90;;;;;;4972479;28;20191;-87
2022/01/03 12:04:16;;;;;;;3.57;1.00;;;12.00;99.90;;;;;;4969728;28;20208;-91
2022/01/03 12:06:44;;;;;;;1.90;0.90;;;12.10;99.90;;;;;;4984275;28;20715;-86
2022/01/03 12:09:12;;;;;;;2.80;1.57;;;12.00;99.90;;;;;;4969082;28;20615;-86
2022/01/03 12:11:53;;;;;;;6.00;0.90;;;12.00;99.90;;;;;;4967116;28;20191;-87
2022/01/03 12:14:21;;;;;;;3.37;0.60;;;12.00;99.90;;;;;;4969402;28;20235;-86
2022/01/03 12:16:54;;;;;;;0.97;0.97;;;11.90;99.90;;;;;;4936416;28;21655;-85
2022/01/03 12:19:28;;;;;;;9.03;3.70;;;11.90;99.90;;;;;;4969613;28;20205;-86
2022/01/03 12:22:18;;;;;;;6.83;1.83;;;11.80;99.90;;;;;;4968269;28;20216;-87
2022/01/03 12:24:53;;;;;;;5.83;1.30;;;11.70;99.90;;;;;;4959315;28;20208;-87
2022/01/03 12:27:18;;;;;;;8.10;2.27;;;11.80;99.90;;;;;;4964647;28;20774;-87
2022/01/03 12:29:56;;;;;;;4.63;2.07;;;11.80;99.90;;;;;;4956663;28;20221;-86
2022/01/03 12:32:45;;;;;;;10.47;2.03;;;11.90;99.90;;;;;;4974270;28;20228;-88
2022/01/03 12:35:17;;;;;;;1.87;1.20;;;12.00;99.90;;;;;;4986559;28;20176;-87
2022/01/03 12:38:08;;;;;;;3.73;1.97;;;12.10;99.90;;;;;;4975304;28;20228;-87
2022/01/03 12:40:49;;;;;;;0.87;0.50;;;12.10;99.90;;;;;;4973845;28;20216;-87
2022/01/03 12:43:16;;;;;;;5.60;1.30;;;12.00;99.90;;;;;;4977807;28;20209;-86
2022/01/03 12:45:46;;;;;;;8.90;2.37;;;12.00;99.90;;;;;;4959385;28;20208;-86
2022/01/03 12:48:15;;;;;;;1.37;0.60;;;12.00;99.90;;;;;;4978222;28;20222;-86
2022/01/03 12:50:52;;;;;;;14.60;2.30;;;12.00;99.90;;;;;;4979340;28;20184;-86
2022/01/03 12:53:18;;;;;;;7.70;1.63;;;12.10;99.90;;;;;;4985252;28;20560;-86
2022/01/03 12:55:53;;;;;;;7.63;2.03;;;12.00;99.90;;;;;;4976518;28;20212;-86
2022/01/03 12:58:19;;;;;;;4.00;1.73;;;12.20;99.90;;;;;;4967268;28;20216;-86
2022/01/03 13:00:50;;;;;;;5.90;1.83;;;12.30;99.90;;;;;;4973735;28;20215;-86
2022/01/03 13:03:47;;;;;;;5.90;1.83;;;12.30;99.90;;;;;;4968409;28;20220;-86
2022/01/03 13:06:25;;;;;;;2.90;2.07;;;12.30;99.90;;;;;;4973710;28;21087;-86
2022/01/03 13:08:54;;;;;;;3.10;2.23;;;12.10;99.90;;;;;;4975199;28;20298;-85
2022/01/03 13:11:31;;;;;;;4.43;0.87;;;12.10;99.90;;;;;;4973693;28;20203;-86
2022/01/03 13:14:07;;;;;;;2.30;0.83;;;12.10;99.90;;;;;;4974592;28;20179;-87
2022/01/03 13:16:47;;;;;;;9.97;2.40;;;12.10;99.90;;;;;;4974953;28;20554;-86